Time;durP1;ratioP1;P1;durP2;ratioP2;P2;SDS_P1;SDS_P2;PMS_P1;PMS_P2;Temp;Humidity;BMP_temperature;BMP_pressure;BME280_temperature;BME280_humidity;BME280_pressure;Samples;Min_cycle;Max_cycle;Signal;HPM_P1;HPM_P2
2022/11/25 06:31:51;;;;;;;;;6.33;4.33;;;;;;;;4983756;24;46475;-58
2022/11/25 06:34:16;;;;;;;;;7.33;5.33;;;;;;;;4707739;30;46445;-58
2022/11/25 06:36:41;;;;;;;;;8.00;6.67;;;;;;;;4721147;30;45264;-58
2022/11/25 06:39:07;;;;;;;;;6.67;6.00;;;;;;;;4716814;30;45249;-59
2022/11/25 06:41:32;;;;;;;;;8.33;5.67;;;;;;;;4720666;30;45413;-58
2022/11/25 06:43:57;;;;;;;;;8.00;5.33;;;;;;;;4719942;30;45588;-59
2022/11/25 06:46:23;;;;;;;;;12.67;8.00;;;;;;;;4719472;30;45427;-59
2022/11/25 06:48:48;;;;;;;;;4.00;4.00;;;;;;;;4719935;30;45537;-60
2022/11/25 06:51:14;;;;;;;;;8.00;5.33;;;;;;;;4719686;30;45820;-60
2022/11/25 06:53:39;;;;;;;;;11.67;7.33;;;;;;;;4720230;30;45604;-60
2022/11/25 06:56:07;;;;;;;;;8.00;5.00;;;;;;;;4720906;30;45223;-58
2022/11/25 06:58:33;;;;;;;;;9.33;7.67;;;;;;;;4712991;30;45498;-58
2022/11/25 07:01:18;;;;;;;;;8.67;8.00;;;;;;;;4713649;30;45425;-58
2022/11/25 07:03:43;;;;;;;;;6.33;3.33;;;;;;;;4718644;30;45469;-58
2022/11/25 07:06:10;;;;;;;;;8.67;5.33;;;;;;;;4716040;30;45566;-59
2022/11/25 07:08:35;;;;;;;;;6.00;5.00;;;;;;;;4718434;30;46227;-59
2022/11/25 07:11:01;;;;;;;;;7.00;6.00;;;;;;;;4701660;30;45447;-58
2022/11/25 07:13:27;;;;;;;;;6.67;5.00;;;;;;;;4711079;30;46104;-58
2022/11/25 07:15:52;;;;;;;;;7.33;4.33;;;;;;;;4714771;30;45534;-58
2022/11/25 07:18:17;;;;;;;;;8.67;4.67;;;;;;;;4718966;30;45441;-59
2022/11/25 07:20:42;;;;;;;;;12.67;5.00;;;;;;;;4717629;30;45778;-59
2022/11/25 07:23:07;;;;;;;;;7.33;6.67;;;;;;;;4714653;30;45303;-58
2022/11/25 07:25:32;;;;;;;;;7.33;5.33;;;;;;;;4714316;30;45423;-59
2022/11/25 07:27:58;;;;;;;;;5.00;5.00;;;;;;;;4716442;30;46296;-59
2022/11/25 07:30:24;;;;;;;;;6.67;4.00;;;;;;;;4717879;30;45312;-59
2022/11/25 07:32:49;;;;;;;;;5.00;3.67;;;;;;;;4719171;30;45499;-59
2022/11/25 07:35:14;;;;;;;;;9.00;6.00;;;;;;;;4718923;30;45299;-59
2022/11/25 07:37:39;;;;;;;;;7.00;4.67;;;;;;;;4719745;30;45376;-59
2022/11/25 07:40:05;;;;;;;;;8.33;6.00;;;;;;;;4718406;30;45438;-59
2022/11/25 07:42:30;;;;;;;;;7.67;4.67;;;;;;;;4718811;30;45493;-58
2022/11/25 07:44:55;;;;;;;;;9.00;4.67;;;;;;;;4714177;30;45680;-59
2022/11/25 07:47:20;;;;;;;;;11.00;6.00;;;;;;;;4718321;30;45331;-61
2022/11/25 07:49:45;;;;;;;;;5.00;4.00;;;;;;;;4719199;30;45382;-55
2022/11/25 07:52:11;;;;;;;;;6.67;6.00;;;;;;;;4709864;30;45783;-57
2022/11/25 07:54:36;;;;;;;;;5.00;5.00;;;;;;;;4716681;30;45341;-56
2022/11/25 07:57:01;;;;;;;;;9.00;6.33;;;;;;;;4722306;30;45397;-56
2022/11/25 07:59:26;;;;;;;;;4.33;3.33;;;;;;;;4716537;30;45389;-56
2022/11/25 08:01:53;;;;;;;;;5.33;4.00;;;;;;;;4717690;30;45938;-55
2022/11/25 08:04:18;;;;;;;;;7.67;4.33;;;;;;;;4717007;30;45447;-55
2022/11/25 08:06:44;;;;;;;;;9.00;5.00;;;;;;;;4716242;30;46074;-58
2022/11/25 08:09:11;;;;;;;;;7.33;4.33;;;;;;;;4719049;30;45355;-57
2022/11/25 08:11:36;;;;;;;;;8.00;6.67;;;;;;;;4713033;30;45486;-55
2022/11/25 08:14:02;;;;;;;;;4.33;4.33;;;;;;;;4720166;30;45326;-56
2022/11/25 08:16:29;;;;;;;;;5.67;5.00;;;;;;;;4719133;30;46188;-57
2022/11/25 08:18:55;;;;;;;;;11.67;7.33;;;;;;;;4719217;30;45491;-57
2022/11/25 08:21:21;;;;;;;;;12.33;5.00;;;;;;;;4718802;30;45454;-57
2022/11/25 08:23:47;;;;;;;;;6.00;6.00;;;;;;;;4715713;30;45693;-56
2022/11/25 08:26:17;;;;;;;;;7.33;7.00;;;;;;;;4712313;30;46098;-57
2022/11/25 08:28:43;;;;;;;;;8.67;7.33;;;;;;;;4720369;30;45523;-57
2022/11/25 08:31:13;;;;;;;;;8.33;6.33;;;;;;;;4721175;30;45483;-58
2022/11/25 08:33:38;;;;;;;;;7.00;6.00;;;;;;;;4721949;30;45384;-56
2022/11/25 08:36:05;;;;;;;;;7.67;7.33;;;;;;;;4721485;30;45526;-57
2022/11/25 08:38:30;;;;;;;;;9.67;7.00;;;;;;;;4720421;30;45415;-57
2022/11/25 08:40:55;;;;;;;;;10.00;7.00;;;;;;;;4718837;30;45413;-57
2022/11/25 08:43:21;;;;;;;;;8.00;5.00;;;;;;;;4728243;30;45514;-57
2022/11/25 08:45:49;;;;;;;;;11.33;7.67;;;;;;;;4721034;30;46468;-57
2022/11/25 08:48:15;;;;;;;;;6.33;5.33;;;;;;;;4730801;30;45308;-57
2022/11/25 08:50:44;;;;;;;;;6.67;6.00;;;;;;;;4726427;30;45300;-57
2022/11/25 08:53:09;;;;;;;;;9.67;7.67;;;;;;;;4722834;30;45328;-57
2022/11/25 08:55:36;;;;;;;;;10.00;8.00;;;;;;;;4720776;30;45335;-57
2022/11/25 08:58:01;;;;;;;;;11.00;8.00;;;;;;;;4726350;30;45329;-57
2022/11/25 09:00:26;;;;;;;;;14.00;9.33;;;;;;;;4713877;30;45278;-57
2022/11/25 09:02:51;;;;;;;;;12.00;8.33;;;;;;;;4729118;30;45494;-57
2022/11/25 09:05:17;;;;;;;;;10.33;6.33;;;;;;;;4722043;30;45476;-57
2022/11/25 09:07:42;;;;;;;;;12.67;9.33;;;;;;;;4717940;30;45312;-57
2022/11/25 09:10:09;;;;;;;;;10.67;7.00;;;;;;;;4728703;30;45270;-57
2022/11/25 09:12:34;;;;;;;;;10.33;10.33;;;;;;;;4714907;30;45659;-57
2022/11/25 09:15:00;;;;;;;;;12.33;7.00;;;;;;;;4728049;30;45338;-57
2022/11/25 09:17:26;;;;;;;;;9.67;7.33;;;;;;;;4725596;30;45426;-57
2022/11/25 09:19:51;;;;;;;;;11.33;10.00;;;;;;;;4723583;30;45560;-56
2022/11/25 09:22:16;;;;;;;;;9.33;8.00;;;;;;;;4724240;30;45333;-57
2022/11/25 09:24:44;;;;;;;;;11.67;8.33;;;;;;;;4726306;30;45629;-56
2022/11/25 09:27:09;;;;;;;;;13.33;9.33;;;;;;;;4733580;30;45473;-57
2022/11/25 09:29:34;;;;;;;;;9.67;7.00;;;;;;;;4722832;30;45490;-57
2022/11/25 09:31:59;;;;;;;;;8.67;3.67;;;;;;;;4727417;30;45432;-55
2022/11/25 09:34:24;;;;;;;;;12.33;7.00;;;;;;;;4735096;30;45955;-57
2022/11/25 09:36:50;;;;;;;;;8.00;6.67;;;;;;;;4733524;30;45399;-57
2022/11/25 09:39:15;;;;;;;;;9.67;7.33;;;;;;;;4724004;30;45395;-57
2022/11/25 09:47:39;;;;;;;;;9.67;5.00;;;;;;;;4719397;30;45551;-58
2022/11/25 09:50:20;;;;;;;;;8.67;4.67;;;;;;;;4720337;30;45289;-57
2022/11/25 09:52:45;;;;;;;;;7.00;5.00;;;;;;;;4720282;30;45266;-57
2022/11/25 09:55:15;;;;;;;;;10.00;6.67;;;;;;;;4713569;30;46165;-58
2022/11/25 09:58:00;;;;;;;;;9.33;5.67;;;;;;;;4719674;30;45330;-57
2022/11/25 10:00:37;;;;;;;;;10.00;8.00;;;;;;;;4716004;30;45330;-58
2022/11/25 10:03:13;;;;;;;;;12.67;5.67;;;;;;;;4717099;30;45410;-59
2022/11/25 10:05:42;;;;;;;;;8.00;7.00;;;;;;;;4700656;30;47771;-59
2022/11/25 10:08:10;;;;;;;;;10.00;5.00;;;;;;;;4719773;30;45582;-59
2022/11/25 10:10:52;;;;;;;;;9.33;7.00;;;;;;;;4711566;30;45415;-57
2022/11/25 10:13:27;;;;;;;;;7.00;4.00;;;;;;;;4710307;30;45502;-57
2022/11/25 10:15:55;;;;;;;;;7.33;5.00;;;;;;;;4726334;30;48292;-58
2022/11/25 10:18:28;;;;;;;;;7.67;2.00;;;;;;;;4720629;30;45557;-57
2022/11/25 10:20:53;;;;;;;;;11.67;9.00;;;;;;;;4721282;30;45265;-56
2022/11/25 10:23:24;;;;;;;;;5.33;4.33;;;;;;;;4718527;30;45405;-56
2022/11/25 10:25:52;;;;;;;;;6.00;5.33;;;;;;;;4725137;30;45435;-57
2022/11/25 10:28:17;;;;;;;;;10.00;5.00;;;;;;;;4719489;30;45305;-57
2022/11/25 10:30:45;;;;;;;;;5.67;4.33;;;;;;;;4721776;30;45862;-57
2022/11/25 10:33:13;;;;;;;;;5.00;4.67;;;;;;;;4693875;30;45817;-58
2022/11/25 10:35:42;;;;;;;;;8.67;7.00;;;;;;;;4705593;30;47008;-57
2022/11/25 10:38:12;;;;;;;;;9.00;6.00;;;;;;;;4719443;30;45584;-58
2022/11/25 10:40:37;;;;;;;;;7.00;6.67;;;;;;;;4720034;30;45364;-57
2022/11/25 10:43:10;;;;;;;;;7.67;5.00;;;;;;;;4727777;30;45368;-58
2022/11/25 10:45:39;;;;;;;;;9.67;5.00;;;;;;;;4719162;30;46185;-58
2022/11/25 10:48:31;;;;;;;;;5.67;4.67;;;;;;;;4728065;30;45217;-58
2022/11/25 10:51:18;;;;;;;;;5.00;5.00;;;;;;;;4685503;30;45501;-58
2022/11/25 10:54:03;;;;;;;;;8.50;3.50;;;;;;;;4712991;30;45612;-58
2022/11/25 10:56:29;;;;;;;;;6.25;4.00;;;;;;;;4722606;30;46258;-57
2022/11/25 10:58:54;;;;;;;;;8.00;5.67;;;;;;;;4719938;30;45388;-58
2022/11/25 11:01:19;;;;;;;;;4.00;4.00;;;;;;;;4718331;30;45581;-57
2022/11/25 11:03:45;;;;;;;;;6.50;3.50;;;;;;;;4718915;30;45579;-58
2022/11/25 11:06:30;;;;;;;;;6.75;5.75;;;;;;;;4712241;30;46331;-57
2022/11/25 11:08:56;;;;;;;;;5.50;5.00;;;;;;;;4713270;30;45331;-57
2022/11/25 11:11:22;;;;;;;;;6.25;6.25;;;;;;;;4725100;30;45506;-58
2022/11/25 11:13:49;;;;;;;;;9.25;4.00;;;;;;;;4727528;30;45976;-57
2022/11/25 11:16:24;;;;;;;;;9.75;9.75;;;;;;;;4731966;30;46082;-58
2022/11/25 11:18:50;;;;;;;;;7.50;6.00;;;;;;;;4727687;30;45395;-58
2022/11/25 11:21:29;;;;;;;;;4.75;4.00;;;;;;;;4723537;30;45252;-58
2022/11/25 11:23:55;;;;;;;;;10.25;4.00;;;;;;;;4713433;30;45522;-58
2022/11/25 11:26:24;;;;;;;;;6.00;6.00;;;;;;;;4716619;30;46357;-58
2022/11/25 11:28:56;;;;;;;;;7.50;5.00;;;;;;;;4725117;30;45478;-58
2022/11/25 11:31:27;;;;;;;;;5.00;3.75;;;;;;;;4714645;30;46039;-58
2022/11/25 11:33:59;;;;;;;;;3.75;3.00;;;;;;;;4727285;30;45355;-58
2022/11/25 11:36:33;;;;;;;;;6.00;3.25;;;;;;;;4711948;30;45720;-59
2022/11/25 11:38:58;;;;;;;;;5.00;4.00;;;;;;;;4719133;30;45475;-57
2022/11/25 11:41:32;;;;;;;;;2.25;2.25;;;;;;;;4725752;30;45430;-57
2022/11/25 11:44:12;;;;;;;;;6.00;5.00;;;;;;;;4729116;30;45501;-58
2022/11/25 11:46:56;;;;;;;;;7.00;3.75;;;;;;;;4718377;30;45243;-59
2022/11/25 11:49:56;;;;;;;;;6.00;5.25;;;;;;;;4719041;30;45372;-58
2022/11/25 11:52:21;;;;;;;;;7.25;4.25;;;;;;;;4631039;30;45590;-58
2022/11/25 11:54:57;;;;;;;;;13.25;5.00;;;;;;;;4697440;30;45455;-59
2022/11/25 11:57:22;;;;;;;;;6.25;4.50;;;;;;;;4723561;30;46764;-58
2022/11/25 11:59:52;;;;;;;;;5.25;4.50;;;;;;;;4718281;30;45554;-57
2022/11/25 12:02:26;;;;;;;;;3.25;3.00;;;;;;;;4718759;30;45482;-58
2022/11/25 12:04:51;;;;;;;;;4.00;4.00;;;;;;;;4720341;30;45289;-57
2022/11/25 12:07:21;;;;;;;;;7.40;4.40;;;;;;;;4717472;30;46213;-57
2022/11/25 12:10:06;;;;;;;;;4.00;3.00;;;;;;;;4719248;30;45480;-57
2022/11/25 12:12:35;;;;;;;;;6.00;6.00;;;;;;;;4716696;30;45394;-58
2022/11/25 12:15:04;;;;;;;;;5.25;4.25;;;;;;;;4711668;30;45494;-57
2022/11/25 12:17:33;;;;;;;;;4.00;3.00;;;;;;;;4716293;30;47320;-58
2022/11/25 12:20:37;;;;;;;;;3.50;2.00;;;;;;;;4717578;30;45463;-58
2022/11/25 12:23:08;;;;;;;;;9.00;4.00;;;;;;;;4647752;30;45326;-58
2022/11/25 12:25:35;;;;;;;;;7.75;3.00;;;;;;;;4645257;30;46074;-58
2022/11/25 12:28:09;;;;;;;;;9.00;5.00;;;;;;;;4681359;30;46151;-57
2022/11/25 12:30:43;;;;;;;;;6.00;4.67;;;;;;;;4723362;30;45331;-58
2022/11/25 12:33:11;;;;;;;;;5.33;4.67;;;;;;;;4718649;30;45369;-58
2022/11/25 12:35:56;;;;;;;;;6.33;3.67;;;;;;;;4715042;30;45527;-58
2022/11/25 12:38:24;;;;;;;;;7.00;4.00;;;;;;;;4716181;30;46333;-57
2022/11/25 12:41:15;;;;;;;;;5.67;5.00;;;;;;;;4721855;30;45623;-58
2022/11/25 12:43:49;;;;;;;;;5.67;4.00;;;;;;;;4715916;30;45405;-58
2022/11/25 12:46:21;;;;;;;;;4.67;3.00;;;;;;;;4721900;30;45555;-58
2022/11/25 12:48:46;;;;;;;;;4.67;4.67;;;;;;;;4720126;30;45416;-58
2022/11/25 12:51:18;;;;;;;;;3.00;2.00;;;;;;;;4703322;30;45339;-58
2022/11/25 12:53:52;;;;;;;;;4.67;3.00;;;;;;;;4718640;30;45528;-58
2022/11/25 12:56:33;;;;;;;;;3.33;3.33;;;;;;;;4718045;30;45371;-57
2022/11/25 12:59:04;;;;;;;;;3.33;3.00;;;;;;;;4716399;30;45366;-57
2022/11/25 13:01:47;;;;;;;;;4.67;2.00;;;;;;;;4710582;30;45391;-58
2022/11/25 13:04:29;;;;;;;;;3.67;3.67;;;;;;;;4719065;30;45312;-59
2022/11/25 13:06:57;;;;;;;;;6.33;3.00;;;;;;;;4721812;30;45282;-58
2022/11/25 13:09:46;;;;;;;;;6.33;3.33;;;;;;;;4720590;30;46041;-58
2022/11/25 13:12:27;;;;;;;;;8.67;3.00;;;;;;;;4721376;30;45344;-57
2022/11/25 13:15:11;;;;;;;;;9.67;4.00;;;;;;;;4721836;30;45390;-57
2022/11/25 13:17:38;;;;;;;;;4.33;2.67;;;;;;;;4721013;30;45896;-58
2022/11/25 13:20:22;;;;;;;;;9.00;4.33;;;;;;;;4720809;30;46141;-56
2022/11/25 13:23:00;;;;;;;;;8.00;4.00;;;;;;;;4721038;30;45388;-56
2022/11/25 13:25:25;;;;;;;;;9.33;4.33;;;;;;;;4704783;30;45402;-57
2022/11/25 13:27:53;;;;;;;;;4.67;4.00;;;;;;;;4721451;30;45324;-57
2022/11/25 13:30:30;;;;;;;;;7.67;6.00;;;;;;;;4719179;30;46262;-57
2022/11/25 13:32:56;;;;;;;;;5.00;3.33;;;;;;;;4720841;30;45292;-57
2022/11/25 13:35:21;;;;;;;;;5.67;4.33;;;;;;;;4720949;30;45572;-57
2022/11/25 13:37:47;;;;;;;;;3.67;2.67;;;;;;;;4720646;30;45392;-57
2022/11/25 13:40:19;;;;;;;;;3.00;3.00;;;;;;;;4719540;30;45468;-57
2022/11/25 13:42:45;;;;;;;;;4.33;2.33;;;;;;;;4720497;30;45442;-58
2022/11/25 13:45:25;;;;;;;;;5.00;3.33;;;;;;;;4708758;30;45423;-58
2022/11/25 13:47:51;;;;;;;;;5.33;3.00;;;;;;;;4712232;30;45429;-58
2022/11/25 13:50:24;;;;;;;;;4.00;4.00;;;;;;;;4719374;30;46159;-57
2022/11/25 13:53:00;;;;;;;;;7.33;6.00;;;;;;;;4720212;30;45324;-57
2022/11/25 13:55:31;;;;;;;;;8.00;6.00;;;;;;;;4717783;30;45558;-58
2022/11/25 13:58:03;;;;;;;;;10.33;7.00;;;;;;;;4721772;30;45498;-58
2022/11/25 14:00:46;;;;;;;;;7.67;4.00;;;;;;;;4711442;30;45458;-56
2022/11/25 14:03:17;;;;;;;;;3.33;2.00;;;;;;;;4717429;30;45486;-55
2022/11/25 14:05:43;;;;;;;;;7.33;2.00;;;;;;;;4716299;30;45509;-57
2022/11/25 14:08:14;;;;;;;;;3.00;3.00;;;;;;;;4721159;30;45302;-57
2022/11/25 14:10:51;;;;;;;;;6.67;3.00;;;;;;;;4721076;30;45748;-57
2022/11/25 14:13:22;;;;;;;;;6.33;3.33;;;;;;;;4719908;30;45647;-57
2022/11/25 14:15:56;;;;;;;;;6.00;3.00;;;;;;;;4718412;30;45317;-57
2022/11/25 14:18:24;;;;;;;;;4.33;4.33;;;;;;;;4721338;30;45665;-57
2022/11/25 14:20:54;;;;;;;;;5.33;2.33;;;;;;;;4722501;30;45925;-57
2022/11/25 14:23:19;;;;;;;;;5.00;3.33;;;;;;;;4720179;30;45447;-57
2022/11/25 14:25:51;;;;;;;;;7.75;5.00;;;;;;;;4720209;30;45490;-57
2022/11/25 14:28:54;;;;;;;;;4.67;3.00;;;;;;;;4731422;30;45318;-57
2022/11/25 14:31:23;;;;;;;;;4.67;3.00;;;;;;;;4633795;30;46480;-58
2022/11/25 14:33:54;;;;;;;;;4.33;2.67;;;;;;;;4634551;30;45435;-57
2022/11/25 14:36:27;;;;;;;;;8.00;3.00;;;;;;;;4675575;30;45748;-57
2022/11/25 14:39:00;;;;;;;;;7.33;2.33;;;;;;;;4722331;30;45293;-57
2022/11/25 14:41:35;;;;;;;;;8.67;5.00;;;;;;;;4718736;30;46455;-57
2022/11/25 14:44:05;;;;;;;;;4.00;4.00;;;;;;;;4718790;30;45504;-58
2022/11/25 14:46:30;;;;;;;;;6.67;5.67;;;;;;;;4717476;30;45424;-57
2022/11/25 14:49:00;;;;;;;;;7.67;3.33;;;;;;;;4717069;30;45797;-57
2022/11/25 14:51:26;;;;;;;;;3.33;2.00;;;;;;;;4718815;30;46058;-58
2022/11/25 14:53:52;;;;;;;;;3.00;2.00;;;;;;;;4718267;30;45456;-57
2022/11/25 14:56:32;;;;;;;;;5.00;3.00;;;;;;;;4709398;30;45484;-58
2022/11/25 14:58:58;;;;;;;;;7.00;4.00;;;;;;;;4718451;30;45384;-57
2022/11/25 15:01:24;;;;;;;;;6.67;4.00;;;;;;;;4718443;30;45553;-58
2022/11/25 15:03:51;;;;;;;;;11.67;4.67;;;;;;;;4722308;30;45477;-57
2022/11/25 15:06:18;;;;;;;;;4.33;3.33;;;;;;;;4717780;30;45495;-58
2022/11/25 15:08:54;;;;;;;;;2.67;2.67;;;;;;;;4714450;30;45855;-58
2022/11/25 15:11:21;;;;;;;;;9.67;3.33;;;;;;;;4721086;30;45505;-57
2022/11/25 15:14:03;;;;;;;;;3.00;3.00;;;;;;;;4719414;30;45418;-58
2022/11/25 15:16:30;;;;;;;;;5.00;3.00;;;;;;;;4713900;30;45360;-58
2022/11/25 15:18:57;;;;;;;;;5.67;4.00;;;;;;;;4718785;30;45429;-58
2022/11/25 15:21:28;;;;;;;;;4.33;3.67;;;;;;;;4713873;30;46363;-57
2022/11/25 15:23:53;;;;;;;;;5.00;2.33;;;;;;;;4718621;30;45374;-57
2022/11/25 15:26:21;;;;;;;;;5.67;5.00;;;;;;;;4710919;30;45269;-57
2022/11/25 15:28:46;;;;;;;;;5.33;4.67;;;;;;;;4718421;30;45435;-57
2022/11/25 15:31:19;;;;;;;;;9.33;4.33;;;;;;;;4714320;30;46455;-57
2022/11/25 15:33:45;;;;;;;;;9.33;4.00;;;;;;;;4713034;30;45562;-57
2022/11/25 15:36:10;;;;;;;;;5.00;4.00;;;;;;;;4711788;30;45471;-57
2022/11/25 15:38:42;;;;;;;;;16.33;13.67;;;;;;;;4715651;30;45563;-57
2022/11/25 15:41:26;;;;;;;;;8.00;5.67;;;;;;;;4709257;30;46237;-57
2022/11/25 15:43:54;;;;;;;;;5.00;4.00;;;;;;;;4697605;30;45479;-58
2022/11/25 15:46:19;;;;;;;;;9.67;6.00;;;;;;;;4718266;30;45390;-58
2022/11/25 15:48:48;;;;;;;;;6.33;4.67;;;;;;;;4708007;30;45455;-58
2022/11/25 15:51:14;;;;;;;;;4.00;4.00;;;;;;;;4712738;30;46643;-57
2022/11/25 15:53:39;;;;;;;;;4.67;4.67;;;;;;;;4714926;30;45620;-58
2022/11/25 15:56:05;;;;;;;;;11.67;6.33;;;;;;;;4707351;30;45468;-57
2022/11/25 15:58:30;;;;;;;;;8.33;7.67;;;;;;;;4706855;30;45583;-57
2022/11/25 16:01:14;;;;;;;;;4.67;4.33;;;;;;;;4721029;30;46201;-57
2022/11/25 16:03:39;;;;;;;;;13.33;7.00;;;;;;;;4714374;30;45481;-56
2022/11/25 16:06:24;;;;;;;;;6.67;6.67;;;;;;;;4718831;30;45722;-57
2022/11/25 16:08:53;;;;;;;;;16.67;7.00;;;;;;;;4713283;30;45617;-57
2022/11/25 16:11:19;;;;;;;;;9.33;6.33;;;;;;;;4710824;30;45763;-55
2022/11/25 16:13:45;;;;;;;;;11.33;8.00;;;;;;;;4714959;30;45538;-56
2022/11/25 16:16:18;;;;;;;;;6.00;6.00;;;;;;;;4711500;30;45543;-57
2022/11/25 16:19:02;;;;;;;;;13.00;7.00;;;;;;;;4715918;30;45395;-56
2022/11/25 16:21:29;;;;;;;;;8.67;6.00;;;;;;;;4714004;30;47068;-56
2022/11/25 16:24:04;;;;;;;;;9.67;7.33;;;;;;;;4709852;30;46686;-55
2022/11/25 16:26:31;;;;;;;;;7.00;7.00;;;;;;;;4716875;30;45498;-56
2022/11/25 16:28:58;;;;;;;;;7.33;6.00;;;;;;;;4714375;30;45512;-56
2022/11/25 16:31:23;;;;;;;;;7.00;5.00;;;;;;;;4716471;30;46839;-57
2022/11/25 16:33:51;;;;;;;;;4.00;4.00;;;;;;;;4716677;30;45367;-58
2022/11/25 16:36:16;;;;;;;;;9.00;6.00;;;;;;;;4715717;30;45443;-58
2022/11/25 16:38:42;;;;;;;;;7.33;7.00;;;;;;;;4710261;30;45419;-60
2022/11/25 16:41:09;;;;;;;;;9.33;9.00;;;;;;;;4722148;30;46423;-59
2022/11/25 16:43:38;;;;;;;;;7.67;7.00;;;;;;;;4719928;30;45516;-58
2022/11/25 16:46:03;;;;;;;;;9.00;7.33;;;;;;;;4718687;30;45449;-58
2022/11/25 16:48:28;;;;;;;;;12.00;9.00;;;;;;;;4719211;30;45443;-58
2022/11/25 16:50:54;;;;;;;;;5.00;2.67;;;;;;;;4720252;30;45866;-58
2022/11/25 16:53:19;;;;;;;;;15.33;10.67;;;;;;;;4720099;30;45614;-58
2022/11/25 16:55:45;;;;;;;;;13.00;10.33;;;;;;;;4725334;30;45942;-58
2022/11/25 16:58:21;;;;;;;;;12.00;9.67;;;;;;;;4728151;30;45436;-58
2022/11/25 17:00:49;;;;;;;;;12.00;9.00;;;;;;;;4720094;30;45473;-58
2022/11/25 17:03:15;;;;;;;;;14.33;10.00;;;;;;;;4719807;30;45860;-58
2022/11/25 17:05:40;;;;;;;;;20.00;13.33;;;;;;;;4729785;30;45648;-58
2022/11/25 17:08:05;;;;;;;;;19.67;15.00;;;;;;;;4717436;30;45582;-58
2022/11/25 17:10:30;;;;;;;;;11.00;10.00;;;;;;;;4714619;30;46304;-58
2022/11/25 17:12:56;;;;;;;;;6.33;6.33;;;;;;;;4724231;30;45320;-58
2022/11/25 17:15:25;;;;;;;;;13.00;9.00;;;;;;;;4719486;30;45360;-59
2022/11/25 17:17:51;;;;;;;;;14.67;10.33;;;;;;;;4720078;30;45452;-58
2022/11/25 17:20:18;;;;;;;;;9.33;7.33;;;;;;;;4724720;30;45387;-58
2022/11/25 17:22:43;;;;;;;;;13.00;9.33;;;;;;;;4706746;30;45420;-57
2022/11/25 17:25:10;;;;;;;;;16.33;10.67;;;;;;;;4721067;30;45374;-58
2022/11/25 17:27:35;;;;;;;;;14.33;12.00;;;;;;;;4721474;30;45344;-58
2022/11/25 17:30:03;;;;;;;;;18.00;11.33;;;;;;;;4720813;30;45473;-58
2022/11/25 17:32:28;;;;;;;;;18.00;14.00;;;;;;;;4712337;30;45421;-58
2022/11/25 17:34:53;;;;;;;;;16.33;11.67;;;;;;;;4721132;30;45454;-59
2022/11/25 17:37:21;;;;;;;;;18.67;13.33;;;;;;;;4720140;30;45325;-58
2022/11/25 17:39:46;;;;;;;;;17.33;14.00;;;;;;;;4724308;30;46169;-58
2022/11/25 17:42:13;;;;;;;;;12.33;10.33;;;;;;;;4722773;30;45453;-58
2022/11/25 17:44:38;;;;;;;;;12.00;10.00;;;;;;;;4718351;30;45400;-58
2022/11/25 17:47:09;;;;;;;;;15.00;12.00;;;;;;;;4720732;30;45334;-58
2022/11/25 17:49:34;;;;;;;;;15.67;14.67;;;;;;;;4721550;30;45508;-58
2022/11/25 17:51:59;;;;;;;;;16.00;13.33;;;;;;;;4720893;30;45347;-58
2022/11/25 17:54:24;;;;;;;;;15.33;12.67;;;;;;;;4720461;30;45424;-58
2022/11/25 17:56:50;;;;;;;;;12.33;10.33;;;;;;;;4721071;30;45383;-58
2022/11/25 17:59:16;;;;;;;;;14.67;12.33;;;;;;;;4718641;30;46253;-58
2022/11/25 18:01:42;;;;;;;;;13.00;10.67;;;;;;;;4720450;30;45423;-58
2022/11/25 18:04:13;;;;;;;;;14.67;13.00;;;;;;;;4727571;30;45619;-59
2022/11/25 18:06:38;;;;;;;;;11.67;11.00;;;;;;;;4704806;30;45481;-58
2022/11/25 18:09:03;;;;;;;;;16.33;12.00;;;;;;;;4720466;30;45607;-58
2022/11/25 18:11:28;;;;;;;;;14.00;10.67;;;;;;;;4720350;30;45371;-59
2022/11/25 18:13:54;;;;;;;;;11.67;11.00;;;;;;;;4720941;30;45402;-59
2022/11/25 18:16:22;;;;;;;;;13.00;12.00;;;;;;;;4715388;30;45537;-59
2022/11/25 18:18:47;;;;;;;;;13.33;12.00;;;;;;;;4719859;30;46319;-59
2022/11/25 18:21:12;;;;;;;;;15.00;11.33;;;;;;;;4720610;30;45684;-59
2022/11/25 18:23:37;;;;;;;;;10.00;10.00;;;;;;;;4720000;30;45420;-58
2022/11/25 18:26:03;;;;;;;;;13.00;8.67;;;;;;;;4720744;30;46512;-58
2022/11/25 18:28:29;;;;;;;;;10.00;10.00;;;;;;;;4719833;30;46245;-58
2022/11/25 18:30:56;;;;;;;;;8.00;7.00;;;;;;;;4716408;30;45308;-58
2022/11/25 18:33:21;;;;;;;;;11.00;10.33;;;;;;;;4717679;30;45395;-59
2022/11/25 18:35:46;;;;;;;;;12.33;11.00;;;;;;;;4718164;30;45301;-59
2022/11/25 18:38:13;;;;;;;;;14.67;13.00;;;;;;;;4717632;30;46132;-58
2022/11/25 18:40:39;;;;;;;;;12.67;11.33;;;;;;;;4717691;30;45462;-59
2022/11/25 18:43:05;;;;;;;;;15.67;15.00;;;;;;;;4713740;30;45509;-59
2022/11/25 18:45:32;;;;;;;;;21.00;20.33;;;;;;;;4719323;30;45295;-58
2022/11/25 18:47:57;;;;;;;;;22.00;18.00;;;;;;;;4720115;30;46091;-58
2022/11/25 18:50:24;;;;;;;;;30.67;23.67;;;;;;;;4712642;30;45313;-59
2022/11/25 18:52:49;;;;;;;;;25.00;23.33;;;;;;;;4718972;30;45327;-60
2022/11/25 18:55:16;;;;;;;;;28.33;27.00;;;;;;;;4719605;30;45636;-60
2022/11/25 18:57:44;;;;;;;;;26.00;23.00;;;;;;;;4704037;30;45646;-58
2022/11/25 19:00:28;;;;;;;;;23.33;20.00;;;;;;;;4716565;30;45418;-57
2022/11/25 19:02:53;;;;;;;;;24.50;21.50;;;;;;;;4715377;30;46579;-58
2022/11/25 19:05:24;;;;;;;;;31.67;24.00;;;;;;;;4716286;30;45257;-58
2022/11/25 19:07:52;;;;;;;;;27.00;22.67;;;;;;;;4718378;30;45576;-58
2022/11/25 19:10:18;;;;;;;;;28.67;22.00;;;;;;;;4717891;30;45479;-58
2022/11/25 19:12:46;;;;;;;;;27.00;24.67;;;;;;;;4718688;30;45448;-58
2022/11/25 19:15:13;;;;;;;;;26.33;24.67;;;;;;;;4718139;30;45454;-59
2022/11/25 19:17:39;;;;;;;;;29.00;24.33;;;;;;;;4716288;30;47255;-58
2022/11/25 19:20:11;;;;;;;;;34.00;28.67;;;;;;;;4719544;30;45533;-58
2022/11/25 19:22:37;;;;;;;;;41.67;31.00;;;;;;;;4719309;30;45361;-59
2022/11/25 19:25:02;;;;;;;;;45.00;32.33;;;;;;;;4716004;30;45408;-61
2022/11/25 19:27:27;;;;;;;;;33.33;30.67;;;;;;;;4718984;30;46233;-60
2022/11/25 19:29:52;;;;;;;;;44.00;32.67;;;;;;;;4717740;30;45395;-60
2022/11/25 19:32:20;;;;;;;;;36.33;31.33;;;;;;;;4715049;30;45236;-61
2022/11/25 19:34:48;;;;;;;;;34.00;29.67;;;;;;;;4718361;30;45747;-62
2022/11/25 19:37:15;;;;;;;;;44.67;34.00;;;;;;;;4718270;30;46854;-61
2022/11/25 19:39:40;;;;;;;;;36.33;32.00;;;;;;;;4718966;30;45609;-61
2022/11/25 19:42:05;;;;;;;;;40.67;34.00;;;;;;;;4719295;30;45394;-61
2022/11/25 19:44:31;;;;;;;;;38.00;33.00;;;;;;;;4719025;30;45323;-60
2022/11/25 19:46:56;;;;;;;;;43.00;34.00;;;;;;;;4710023;30;46272;-59
2022/11/25 19:49:22;;;;;;;;;41.00;34.00;;;;;;;;4717582;30;45436;-60
2022/11/25 19:51:48;;;;;;;;;41.00;34.33;;;;;;;;4708953;30;45538;-60
2022/11/25 19:54:15;;;;;;;;;38.67;32.33;;;;;;;;4712658;30;45297;-60
2022/11/25 19:56:40;;;;;;;;;40.67;34.33;;;;;;;;4715128;30;46459;-59
2022/11/25 19:59:06;;;;;;;;;42.00;33.67;;;;;;;;4716882;30;45509;-59
2022/11/25 20:01:33;;;;;;;;;41.00;34.00;;;;;;;;4716660;30;45551;-59
2022/11/25 20:03:58;;;;;;;;;44.00;33.00;;;;;;;;4718044;30;45466;-59
2022/11/25 20:06:24;;;;;;;;;40.67;36.67;;;;;;;;4716114;30;45816;-58
2022/11/25 20:08:49;;;;;;;;;41.67;35.00;;;;;;;;4717706;30;45646;-59
2022/11/25 20:11:16;;;;;;;;;45.00;37.33;;;;;;;;4718607;30;45390;-60
2022/11/25 20:13:42;;;;;;;;;41.00;35.33;;;;;;;;4720187;30;45989;-59
2022/11/25 20:16:18;;;;;;;;;42.67;35.33;;;;;;;;4719516;30;46345;-59
2022/11/25 20:18:44;;;;;;;;;43.33;35.00;;;;;;;;4718353;30;45432;-60
2022/11/25 20:21:14;;;;;;;;;44.67;38.33;;;;;;;;4721266;30;45356;-59
2022/11/25 20:23:41;;;;;;;;;44.67;36.67;;;;;;;;4718610;30;46658;-59
2022/11/25 20:26:08;;;;;;;;;44.67;37.00;;;;;;;;4712709;30;47468;-60
2022/11/25 20:28:34;;;;;;;;;42.33;35.33;;;;;;;;4718141;30;45439;-59
2022/11/25 20:30:59;;;;;;;;;46.33;33.00;;;;;;;;4716116;30;45381;-59
2022/11/25 20:33:25;;;;;;;;;40.00;32.33;;;;;;;;4719425;30;45569;-59
2022/11/25 20:35:52;;;;;;;;;37.33;32.00;;;;;;;;4719326;30;46519;-59
2022/11/25 20:38:19;;;;;;;;;36.00;32.00;;;;;;;;4718399;30;45444;-59
2022/11/25 20:40:45;;;;;;;;;40.00;30.33;;;;;;;;4718793;30;45376;-60
2022/11/25 20:43:25;;;;;;;;;35.33;30.33;;;;;;;;4717750;30;45522;-60
2022/11/25 20:45:51;;;;;;;;;41.67;33.00;;;;;;;;4716136;30;46347;-60
2022/11/25 20:48:16;;;;;;;;;32.00;29.33;;;;;;;;4712647;30;45562;-60
2022/11/25 20:50:41;;;;;;;;;40.33;34.00;;;;;;;;4721792;30;45483;-60
2022/11/25 20:53:16;;;;;;;;;34.67;31.00;;;;;;;;4723767;30;45484;-60
2022/11/25 20:55:42;;;;;;;;;39.67;34.00;;;;;;;;4729159;30;46280;-60
2022/11/25 20:58:20;;;;;;;;;31.67;30.67;;;;;;;;4727844;30;45364;-59
2022/11/25 21:00:45;;;;;;;;;36.33;33.00;;;;;;;;4716072;30;45559;-59
2022/11/25 21:03:10;;;;;;;;;38.33;33.33;;;;;;;;4720742;30;45618;-59
2022/11/25 21:05:35;;;;;;;;;36.00;33.00;;;;;;;;4721158;30;46015;-59
2022/11/25 21:08:01;;;;;;;;;39.00;33.00;;;;;;;;4719127;30;45284;-59
2022/11/25 21:10:27;;;;;;;;;47.67;37.00;;;;;;;;4714143;30;45780;-59
2022/11/25 21:12:54;;;;;;;;;45.67;35.67;;;;;;;;4716875;30;45617;-61
2022/11/25 21:15:23;;;;;;;;;44.00;35.75;;;;;;;;4718727;30;45478;-60
2022/11/25 21:17:48;;;;;;;;;44.00;35.00;;;;;;;;4718721;30;45479;-61
2022/11/25 21:20:14;;;;;;;;;39.67;36.00;;;;;;;;4713743;30;45356;-60